createdAt,value
2023-05-21T00:02:30.241Z,13.25
2023-05-21T00:05:05.439Z,13.22
2023-05-21T00:07:37.975Z,13.21
2023-05-21T00:10:11.166Z,13.15
2023-05-21T00:12:43.704Z,13.12
2023-05-21T00:15:16.223Z,13.05
2023-05-21T00:17:48.758Z,13.10
2023-05-21T00:20:21.902Z,13.01
2023-05-21T00:22:54.356Z,13.07
2023-05-21T00:25:26.847Z,13.05
2023-05-21T00:27:59.302Z,12.96
2023-05-21T00:30:31.829Z,12.90
2023-05-21T00:33:04.344Z,12.93
2023-05-21T00:35:37.101Z,12.87
2023-05-21T00:38:09.709Z,12.83
2023-05-21T00:40:42.281Z,12.74
2023-05-21T00:43:14.852Z,12.79
2023-05-21T00:45:48.447Z,12.77
2023-05-21T00:48:21.208Z,12.80
2023-05-21T00:50:54.205Z,12.73
2023-05-21T00:53:27.529Z,12.66
2023-05-21T00:56:00.068Z,12.70
2023-05-21T00:58:34.029Z,12.66
2023-05-21T01:01:07.143Z,12.66
2023-05-21T01:03:41.049Z,12.69
2023-05-21T01:06:14.143Z,12.65
2023-05-21T01:08:46.916Z,12.51
2023-05-21T01:11:21.943Z,12.57
2023-05-21T01:13:54.641Z,12.52
2023-05-21T01:16:29.721Z,12.44
2023-05-21T01:19:03.478Z,12.44
2023-05-21T01:21:45.486Z,12.41
2023-05-21T01:24:18.547Z,12.36
2023-05-21T01:26:51.093Z,12.37
2023-05-21T01:29:23.629Z,12.29
2023-05-21T01:32:30.204Z,12.49
2023-05-21T01:35:11.254Z,12.46
2023-05-21T01:37:53.249Z,12.37
2023-05-21T01:40:38.398Z,12.34
2023-05-21T01:43:11.629Z,12.28
2023-05-21T01:45:45.833Z,12.31
2023-05-21T01:48:18.953Z,12.34
2023-05-21T01:50:52.993Z,12.31
2023-05-21T01:53:25.614Z,12.29
2023-05-21T01:55:59.373Z,12.38
2023-05-21T01:58:31.901Z,12.34
2023-05-21T02:01:05.104Z,12.39
2023-05-21T02:03:38.608Z,12.38
2023-05-21T02:06:11.432Z,12.50
2023-05-21T02:08:45.579Z,12.49
2023-05-21T02:11:18.116Z,12.42
2023-05-21T02:13:50.593Z,12.54
2023-05-21T02:16:23.178Z,12.59
2023-05-21T02:18:57.569Z,12.53
2023-05-21T02:21:31.012Z,12.63
2023-05-21T02:24:03.608Z,12.72
2023-05-21T02:26:36.112Z,12.74
2023-05-21T02:29:09.047Z,12.74
2023-05-21T02:31:41.532Z,12.74
2023-05-21T02:34:14.055Z,12.78
2023-05-21T02:36:48.374Z,12.74
2023-05-21T02:39:21.091Z,12.79
2023-05-21T02:41:53.582Z,12.85
2023-05-21T02:44:26.058Z,12.86
2023-05-21T02:46:58.542Z,12.90
2023-05-21T02:49:31.034Z,12.88
2023-05-21T02:52:03.775Z,12.97
2023-05-21T02:54:36.305Z,13.07
2023-05-21T02:57:08.799Z,12.87
2023-05-21T02:59:41.319Z,12.89
2023-05-21T03:02:13.899Z,12.87
2023-05-21T03:04:46.741Z,12.89
2023-05-21T03:07:19.766Z,12.85
2023-05-21T03:09:52.449Z,12.90
2023-05-21T03:12:24.898Z,13.00
2023-05-21T03:14:57.388Z,12.88
2023-05-21T03:17:29.848Z,12.87
2023-05-21T03:20:05.155Z,12.84
2023-05-21T03:22:37.596Z,12.77
2023-05-21T03:25:11.958Z,12.81
2023-05-21T03:27:44.425Z,12.86
2023-05-21T03:30:16.961Z,12.90
2023-05-21T03:32:49.777Z,12.84
2023-05-21T03:35:22.308Z,12.89
2023-05-21T03:37:54.766Z,12.80
2023-05-21T03:40:27.369Z,12.85
2023-05-21T03:42:59.840Z,13.00
2023-05-21T03:45:32.388Z,12.87
2023-05-21T03:48:05.152Z,13.04
2023-05-21T03:50:37.650Z,13.07
2023-05-21T03:53:10.859Z,13.17
2023-05-21T03:55:43.448Z,13.16
2023-05-21T03:58:15.880Z,13.22
2023-05-21T04:00:48.573Z,13.17
2023-05-21T04:03:21.268Z,13.04
2023-05-21T04:05:53.965Z,13.09
2023-05-21T04:08:26.977Z,13.24
2023-05-21T04:10:59.513Z,13.19
2023-05-21T04:13:32.208Z,13.07
2023-05-21T04:16:05.075Z,13.12
2023-05-21T04:18:37.581Z,12.93
2023-05-21T04:21:10.035Z,13.12
2023-05-21T04:23:42.511Z,13.09
2023-05-21T04:26:16.184Z,12.89
2023-05-21T04:28:48.683Z,13.02
2023-05-21T04:31:22.725Z,13.15
2023-05-21T04:33:55.225Z,12.97
2023-05-21T04:36:29.004Z,12.96
2023-05-21T04:39:02.465Z,12.81
2023-05-21T04:41:35.414Z,13.06
2023-05-21T04:44:08.405Z,13.20
2023-05-21T04:46:41.956Z,13.12
2023-05-21T04:49:15.359Z,13.30
2023-05-21T04:51:49.378Z,13.40
2023-05-21T04:54:21.857Z,13.42
2023-05-21T04:56:54.673Z,13.33
2023-05-21T04:59:27.164Z,13.44
2023-05-21T05:01:59.758Z,13.36
2023-05-21T05:04:32.288Z,13.40
2023-05-21T05:07:05.001Z,13.57
2023-05-21T05:09:37.533Z,13.55
2023-05-21T05:12:10.031Z,13.46
2023-05-21T05:14:42.460Z,13.58
2023-05-21T05:17:14.945Z,13.46
2023-05-21T05:19:47.429Z,13.66
2023-05-21T05:22:19.863Z,13.67
2023-05-21T05:24:52.516Z,13.78
2023-05-21T05:27:24.972Z,13.66
2023-05-21T05:29:57.396Z,13.79
2023-05-21T05:32:29.915Z,13.73
2023-05-21T05:35:03.172Z,13.85
2023-05-21T05:37:35.600Z,13.93
2023-05-21T05:40:08.509Z,13.99
2023-05-21T05:42:41.046Z,13.79
2023-05-21T05:45:13.578Z,13.73
2023-05-21T05:47:46.302Z,14.06
2023-05-21T05:50:20.798Z,14.19
2023-05-21T05:52:53.393Z,14.18
2023-05-21T05:55:26.774Z,14.30
2023-05-21T05:57:59.363Z,14.41
2023-05-21T06:00:32.242Z,14.46
2023-05-21T06:03:05.361Z,14.35
2023-05-21T06:05:38.184Z,14.57
2023-05-21T06:08:10.761Z,14.72
2023-05-21T06:10:43.201Z,14.65
2023-05-21T06:13:15.653Z,15.01
2023-05-21T06:15:48.293Z,15.21
2023-05-21T06:18:20.938Z,15.11
2023-05-21T06:20:53.384Z,15.45
2023-05-21T06:23:25.880Z,15.54
2023-05-21T06:25:58.346Z,15.71
2023-05-21T06:28:31.193Z,15.55
2023-05-21T06:31:03.708Z,15.68
2023-05-21T06:33:36.286Z,15.96
2023-05-21T06:36:08.790Z,15.80
2023-05-21T06:38:42.714Z,16.15
2023-05-21T06:41:15.334Z,16.02
2023-05-21T06:43:47.808Z,15.69
2023-05-21T06:46:20.390Z,16.34
2023-05-21T06:48:52.916Z,16.43
2023-05-21T06:51:25.560Z,16.48
2023-05-21T06:53:58.207Z,16.44
2023-05-21T06:56:30.681Z,16.69
2023-05-21T06:59:03.240Z,16.87
2023-05-21T07:01:35.788Z,16.50
2023-05-21T07:04:09.334Z,17.19
2023-05-21T07:06:41.810Z,17.22
2023-05-21T07:09:14.367Z,17.02
2023-05-21T07:11:47.092Z,17.22
2023-05-21T07:14:19.612Z,17.39
2023-05-21T07:16:52.209Z,17.45
2023-05-21T07:19:24.752Z,17.32
2023-05-21T07:21:57.690Z,17.65
2023-05-21T07:24:30.225Z,17.63
2023-05-21T07:27:08.858Z,17.99
2023-05-21T07:29:50.590Z,17.95
2023-05-21T07:32:23.080Z,18.48
2023-05-21T07:34:55.930Z,18.51
2023-05-21T07:37:31.623Z,18.80
2023-05-21T07:40:04.583Z,18.76
2023-05-21T07:42:37.107Z,18.54
2023-05-21T07:45:09.952Z,18.69
2023-05-21T07:47:42.815Z,19.01
2023-05-21T07:50:15.365Z,18.83
2023-05-21T07:52:47.875Z,18.15
2023-05-21T07:55:20.671Z,18.22
2023-05-21T07:57:53.597Z,18.07
2023-05-21T08:00:26.636Z,18.31
2023-05-21T08:02:59.243Z,18.08
2023-05-21T08:05:32.521Z,17.95
2023-05-21T08:08:05.647Z,17.45
2023-05-21T08:10:38.173Z,18.04
2023-05-21T08:13:13.910Z,18.85
2023-05-21T08:15:46.648Z,18.80
2023-05-21T08:18:19.290Z,18.82
2023-05-21T08:20:51.851Z,19.11
2023-05-21T08:23:24.415Z,19.59
2023-05-21T08:25:57.141Z,19.90
2023-05-21T08:28:30.765Z,19.83
2023-05-21T08:31:03.245Z,19.65
2023-05-21T08:33:38.914Z,19.37
2023-05-21T08:36:11.497Z,19.46
2023-05-21T08:38:44.138Z,19.05
2023-05-21T08:41:18.378Z,19.42
2023-05-21T08:43:57.636Z,19.38
2023-05-21T08:46:34.764Z,19.40
2023-05-21T08:49:12.529Z,19.36
2023-05-21T08:51:46.494Z,19.50
2023-05-21T08:54:19.125Z,19.06
2023-05-21T08:56:53.235Z,19.16
2023-05-21T08:59:27.202Z,19.37
2023-05-21T09:02:00.237Z,19.72
2023-05-21T09:04:34.215Z,20.01
2023-05-21T09:07:09.834Z,19.98
2023-05-21T09:09:49.414Z,19.73
2023-05-21T09:12:21.996Z,19.62
2023-05-21T09:14:56.716Z,19.08
2023-05-21T09:17:31.497Z,19.59
2023-05-21T09:20:17.488Z,20.16
2023-05-21T09:22:50.695Z,20.18
2023-05-21T09:25:29.768Z,20.54
2023-05-21T09:28:02.259Z,20.10
2023-05-21T09:30:36.091Z,19.79
2023-05-21T09:33:08.838Z,19.57
2023-05-21T09:35:50.558Z,19.43
2023-05-21T09:38:27.084Z,18.65
2023-05-21T09:40:59.833Z,19.42
2023-05-21T09:43:32.911Z,19.72
2023-05-21T09:46:05.473Z,18.81
2023-05-21T09:48:43.107Z,19.02
2023-05-21T09:51:17.723Z,19.31
2023-05-21T09:53:54.344Z,19.78
2023-05-21T09:56:29.317Z,19.79
2023-05-21T09:59:06.765Z,20.10
2023-05-21T10:01:39.408Z,20.44
2023-05-21T10:04:12.924Z,20.64
2023-05-21T10:06:47.861Z,20.41
2023-05-21T10:09:21.428Z,20.18
2023-05-21T10:11:55.121Z,19.89
2023-05-21T10:14:32.154Z,20.42
2023-05-21T10:17:06.311Z,20.93
2023-05-21T10:19:40.533Z,20.65
2023-05-21T10:22:13.911Z,20.40
2023-05-21T10:24:47.673Z,20.80
2023-05-21T10:27:22.626Z,20.52
2023-05-21T10:29:57.621Z,20.55
2023-05-21T10:32:30.595Z,21.16
2023-05-21T10:35:03.434Z,20.70
2023-05-21T10:37:36.192Z,20.91
2023-05-21T10:40:09.241Z,21.39
2023-05-21T10:43:01.779Z,21.51
2023-05-21T10:46:02.225Z,21.98
2023-05-21T10:48:52.677Z,22.26
2023-05-21T10:51:29.106Z,22.26
2023-05-21T10:54:01.769Z,21.66
2023-05-21T10:56:46.473Z,22.13
2023-05-21T10:59:28.284Z,22.33
2023-05-21T11:02:01.778Z,22.51
2023-05-21T11:04:39.822Z,22.67
2023-05-21T11:07:13.039Z,22.38
2023-05-21T11:09:45.603Z,22.75
2023-05-21T11:12:19.820Z,22.53
2023-05-21T11:14:58.404Z,22.14
2023-05-21T11:17:39.998Z,21.76
2023-05-21T11:20:14.273Z,22.06
2023-05-21T11:22:46.888Z,22.54
2023-05-21T11:25:19.334Z,22.77
2023-05-21T11:27:53.576Z,22.90
2023-05-21T11:30:25.998Z,23.08
2023-05-21T11:33:07.763Z,23.31
2023-05-21T11:35:46.202Z,23.25
2023-05-21T11:38:18.715Z,23.62
2023-05-21T11:40:54.829Z,23.73
2023-05-21T11:43:27.534Z,24.02
2023-05-21T11:46:00.141Z,24.07
2023-05-21T11:48:33.042Z,24.35
2023-05-21T11:51:06.133Z,24.39
2023-05-21T11:53:39.477Z,24.23
2023-05-21T11:56:12.979Z,24.06
2023-05-21T11:58:46.565Z,23.68
2023-05-21T12:01:26.492Z,23.78
2023-05-21T12:03:59.063Z,23.45
2023-05-21T12:06:31.641Z,23.23
2023-05-21T12:09:05.060Z,23.10
2023-05-21T12:11:39.917Z,23.49
2023-05-21T12:14:12.837Z,23.24
2023-05-21T12:16:45.451Z,23.33
2023-05-21T12:19:18.943Z,23.25
2023-05-21T12:21:51.504Z,24.00
2023-05-21T12:24:24.027Z,24.31
2023-05-21T12:26:59.496Z,24.36
2023-05-21T12:29:33.063Z,24.16
2023-05-21T12:32:09.088Z,24.53
2023-05-21T12:34:46.265Z,24.48
2023-05-21T12:37:27.758Z,24.95
2023-05-21T12:40:01.359Z,24.95
2023-05-21T12:42:34.843Z,24.69
2023-05-21T12:45:08.722Z,24.43
2023-05-21T12:47:41.216Z,24.44
2023-05-21T12:50:14.140Z,24.54
2023-05-21T12:52:46.747Z,24.98
2023-05-21T12:55:19.257Z,25.13
2023-05-21T12:58:02.243Z,25.24
2023-05-21T13:00:35.247Z,25.41
2023-05-21T13:03:08.034Z,24.89
2023-05-21T13:05:41.829Z,25.52
2023-05-21T13:08:16.873Z,25.75
2023-05-21T13:10:49.402Z,25.30
2023-05-21T13:13:22.014Z,25.56
2023-05-21T13:15:55.150Z,25.87
2023-05-21T13:18:27.744Z,25.69
2023-05-21T13:21:00.325Z,25.80
2023-05-21T13:23:33.009Z,25.10
2023-05-21T13:26:05.513Z,25.30
2023-05-21T13:28:38.027Z,24.59
2023-05-21T13:31:12.066Z,24.68
2023-05-21T13:33:44.599Z,25.46
2023-05-21T13:36:17.200Z,25.65
2023-05-21T13:38:49.662Z,25.38
2023-05-21T13:41:22.174Z,25.51
2023-05-21T13:43:54.870Z,25.53
2023-05-21T13:46:27.813Z,24.58
2023-05-21T13:49:00.980Z,25.17
2023-05-21T13:51:39.078Z,25.63
2023-05-21T13:54:14.182Z,25.75
2023-05-21T13:56:47.301Z,25.38
2023-05-21T13:59:20.229Z,26.27
2023-05-21T14:01:53.453Z,26.42
2023-05-21T14:04:26.351Z,26.54
2023-05-21T14:06:59.133Z,26.80
2023-05-21T14:09:32.098Z,26.73
2023-05-21T14:12:06.580Z,27.15
2023-05-21T14:14:39.474Z,26.17
2023-05-21T14:17:12.290Z,27.14
2023-05-21T14:19:44.930Z,26.68
2023-05-21T14:22:17.446Z,26.99
2023-05-21T14:24:50.090Z,26.81
2023-05-21T14:27:22.587Z,26.76
2023-05-21T14:29:55.436Z,26.92
2023-05-21T14:32:28.003Z,26.68
2023-05-21T14:35:00.970Z,26.60
2023-05-21T14:37:33.657Z,26.78
2023-05-21T14:40:07.978Z,27.12
2023-05-21T14:42:40.833Z,26.27
2023-05-21T14:45:18.990Z,26.60
2023-05-21T14:47:52.509Z,27.06
2023-05-21T14:50:25.136Z,27.07
2023-05-21T14:52:57.944Z,27.16
2023-05-21T14:55:30.834Z,27.22
2023-05-21T14:58:04.967Z,27.35
2023-05-21T15:00:38.258Z,26.91
2023-05-21T15:03:10.788Z,26.51
2023-05-21T15:05:43.328Z,26.26
2023-05-21T15:08:15.778Z,26.09
2023-05-21T15:10:48.329Z,26.65
2023-05-21T15:13:21.396Z,27.14
2023-05-21T15:15:54.098Z,27.01
2023-05-21T15:18:26.649Z,27.71
2023-05-21T15:20:59.286Z,27.05
2023-05-21T15:23:32.261Z,27.72
2023-05-21T15:26:04.958Z,27.62
2023-05-21T15:28:37.579Z,27.49
2023-05-21T15:31:11.025Z,28.11
2023-05-21T15:33:43.587Z,27.69
2023-05-21T15:36:16.145Z,27.64
2023-05-21T15:38:48.714Z,27.29
2023-05-21T15:41:22.039Z,27.43
2023-05-21T15:43:54.663Z,27.70
2023-05-21T15:46:27.640Z,28.55
2023-05-21T15:49:00.708Z,28.52
2023-05-21T15:51:33.360Z,28.55
2023-05-21T15:54:06.454Z,28.07
2023-05-21T15:56:40.629Z,28.33
2023-05-21T15:59:14.048Z,28.49
2023-05-21T16:01:47.674Z,28.82
2023-05-21T16:04:20.562Z,28.75
2023-05-21T16:06:53.323Z,28.44
2023-05-21T16:09:26.184Z,29.03
2023-05-21T16:11:59.200Z,28.54
2023-05-21T16:14:32.079Z,28.76
2023-05-21T16:17:04.956Z,29.08
2023-05-21T16:19:39.187Z,28.78
2023-05-21T16:22:12.049Z,29.30
2023-05-21T16:24:44.739Z,29.24
2023-05-21T16:27:18.208Z,29.22
2023-05-21T16:29:50.891Z,29.76
2023-05-21T16:32:23.776Z,29.51
2023-05-21T16:34:56.772Z,29.44
2023-05-21T16:37:29.267Z,29.13
2023-05-21T16:40:04.277Z,28.45
2023-05-21T16:42:36.827Z,28.39
2023-05-21T16:45:10.964Z,28.62
2023-05-21T16:47:43.701Z,27.95
2023-05-21T16:50:18.453Z,27.41
2023-05-21T16:52:51.024Z,27.18
2023-05-21T16:55:24.640Z,27.03
2023-05-21T16:57:57.775Z,26.38
2023-05-21T17:00:30.710Z,26.66
2023-05-21T17:03:03.508Z,26.90
2023-05-21T17:05:36.410Z,26.76
2023-05-21T17:08:09.582Z,26.99
2023-05-21T17:10:44.015Z,27.77
2023-05-21T17:13:22.186Z,28.04
2023-05-21T17:15:55.855Z,27.58
2023-05-21T17:18:28.926Z,27.64
2023-05-21T17:21:01.729Z,27.74
2023-05-21T17:23:35.229Z,27.56
2023-05-21T17:26:11.388Z,28.13
2023-05-21T17:28:44.002Z,27.44
2023-05-21T17:31:17.039Z,27.37
2023-05-21T17:33:49.940Z,27.64
2023-05-21T17:36:22.519Z,27.49
2023-05-21T17:38:55.306Z,27.40
2023-05-21T17:41:27.987Z,26.96
2023-05-21T17:44:00.674Z,27.06
2023-05-21T17:46:33.245Z,27.03
2023-05-21T17:49:08.269Z,27.14
2023-05-21T17:51:41.232Z,27.06
2023-05-21T17:54:13.806Z,27.25
2023-05-21T17:56:46.690Z,27.35
2023-05-21T17:59:19.603Z,26.94
2023-05-21T18:01:52.085Z,26.93
2023-05-21T18:04:24.767Z,27.18
2023-05-21T18:06:57.301Z,27.29
2023-05-21T18:09:29.863Z,27.58
2023-05-21T18:12:03.557Z,27.65
2023-05-21T18:14:36.190Z,27.36
2023-05-21T18:17:09.056Z,27.58
2023-05-21T18:19:41.686Z,27.22
2023-05-21T18:22:14.317Z,27.03
2023-05-21T18:24:46.891Z,27.11
2023-05-21T18:27:19.364Z,26.39
2023-05-21T18:29:52.338Z,26.67
2023-05-21T18:32:25.001Z,25.78
2023-05-21T18:34:58.669Z,25.88
2023-05-21T18:37:31.386Z,25.71
2023-05-21T18:40:07.646Z,25.20
2023-05-21T18:42:40.515Z,24.77
2023-05-21T18:45:13.552Z,24.64
2023-05-21T18:47:46.061Z,24.61
2023-05-21T18:50:25.609Z,23.94
2023-05-21T18:52:58.461Z,23.36
2023-05-21T18:55:31.094Z,23.46
2023-05-21T18:58:03.614Z,23.07
2023-05-21T19:00:38.289Z,22.99
2023-05-21T19:03:11.467Z,22.75
2023-05-21T19:05:44.176Z,22.10
2023-05-21T19:08:16.817Z,22.20
2023-05-21T19:10:49.898Z,22.22
2023-05-21T19:13:22.719Z,22.15
2023-05-21T19:15:57.199Z,22.05
2023-05-21T19:18:31.614Z,22.06
2023-05-21T19:21:04.300Z,21.67
2023-05-21T19:23:51.213Z,21.62
2023-05-21T19:26:25.496Z,21.44
2023-05-21T19:28:57.972Z,21.33
2023-05-21T19:31:30.575Z,21.07
2023-05-21T19:34:10.163Z,21.06
2023-05-21T19:36:52.867Z,21.09
2023-05-21T19:39:26.503Z,20.83
2023-05-21T19:41:59.054Z,20.78
2023-05-21T19:44:31.706Z,20.61
2023-05-21T19:47:04.479Z,20.74
2023-05-21T19:49:37.108Z,20.51
2023-05-21T19:52:10.578Z,20.75
2023-05-21T19:54:43.085Z,20.36
2023-05-21T19:57:16.387Z,20.46
2023-05-21T19:59:48.942Z,20.20
2023-05-21T20:02:23.253Z,19.77
2023-05-21T20:04:57.659Z,20.08
2023-05-21T20:07:30.106Z,19.47
2023-05-21T20:10:02.762Z,19.43
2023-05-21T20:12:38.361Z,19.29
2023-05-21T20:15:13.168Z,18.97
2023-05-21T20:17:46.216Z,18.98
2023-05-21T20:20:18.995Z,19.03
2023-05-21T20:22:51.433Z,18.88
2023-05-21T20:25:24.026Z,18.88
2023-05-21T20:28:03.420Z,18.81
2023-05-21T20:30:59.029Z,18.81
2023-05-21T20:33:33.384Z,18.32
2023-05-21T20:36:05.898Z,18.26
2023-05-21T20:38:42.082Z,17.95
2023-05-21T20:41:14.717Z,18.14
2023-05-21T20:43:47.638Z,17.78
2023-05-21T20:46:20.175Z,18.10
2023-05-21T20:48:53.017Z,17.84
2023-05-21T20:51:26.532Z,17.96
2023-05-21T20:53:59.241Z,17.92
2023-05-21T20:56:41.394Z,17.67
2023-05-21T20:59:15.497Z,17.58
2023-05-21T21:01:48.194Z,17.62
2023-05-21T21:04:20.829Z,17.42
2023-05-21T21:06:54.097Z,17.37
2023-05-21T21:09:26.722Z,17.44
2023-05-21T21:12:06.272Z,17.44
2023-05-21T21:14:44.152Z,17.34
2023-05-21T21:17:16.780Z,17.03
2023-05-21T21:19:49.226Z,17.32
2023-05-21T21:22:21.905Z,17.18
2023-05-21T21:24:54.507Z,17.17
2023-05-21T21:27:27.107Z,17.30
2023-05-21T21:29:59.589Z,17.10
2023-05-21T21:32:32.133Z,17.10
2023-05-21T21:35:04.924Z,16.80
2023-05-21T21:37:37.425Z,16.94
2023-05-21T21:40:10.156Z,16.93
2023-05-21T21:42:43.191Z,17.06
2023-05-21T21:45:16.107Z,16.91
2023-05-21T21:47:48.898Z,16.84
2023-05-21T21:50:21.519Z,16.90
2023-05-21T21:52:55.936Z,16.76
2023-05-21T21:55:29.540Z,16.92
2023-05-21T21:58:02.036Z,16.67
2023-05-21T22:00:34.766Z,16.74
2023-05-21T22:03:07.244Z,16.70
2023-05-21T22:05:39.905Z,16.91
2023-05-21T22:08:12.449Z,16.47
2023-05-21T22:10:44.977Z,16.45
2023-05-21T22:13:17.414Z,16.39
2023-05-21T22:15:50.192Z,16.48
2023-05-21T22:18:38.760Z,16.62
2023-05-21T22:21:14.272Z,16.61
2023-05-21T22:23:47.269Z,16.66
2023-05-21T22:26:20.222Z,16.72
2023-05-21T22:28:52.768Z,16.56
2023-05-21T22:31:25.695Z,16.11
2023-05-21T22:33:58.231Z,16.45
2023-05-21T22:36:30.705Z,16.55
2023-05-21T22:39:03.440Z,16.33
2023-05-21T22:41:35.899Z,16.40
2023-05-21T22:44:08.384Z,16.22
2023-05-21T22:46:42.278Z,16.47
2023-05-21T22:49:17.616Z,16.41
2023-05-21T22:51:51.005Z,16.46
2023-05-21T22:54:23.777Z,16.44
2023-05-21T22:56:56.225Z,16.38
2023-05-21T22:59:29.011Z,16.13
2023-05-21T23:02:01.622Z,16.13
2023-05-21T23:04:43.136Z,16.38
2023-05-21T23:07:16.097Z,16.33
2023-05-21T23:09:55.738Z,16.26
2023-05-21T23:12:28.288Z,15.94
2023-05-21T23:15:01.000Z,15.85
2023-05-21T23:17:33.596Z,15.85
2023-05-21T23:20:08.815Z,15.77
2023-05-21T23:22:41.493Z,16.08
2023-05-21T23:25:14.142Z,16.03
2023-05-21T23:27:46.993Z,15.92
2023-05-21T23:30:19.483Z,15.48
2023-05-21T23:32:52.069Z,15.50
2023-05-21T23:35:24.634Z,15.36
2023-05-21T23:37:57.150Z,15.63
2023-05-21T23:40:29.671Z,15.61
2023-05-21T23:43:02.208Z,15.35
2023-05-21T23:45:34.745Z,15.23
2023-05-21T23:48:07.817Z,15.42
2023-05-21T23:50:40.530Z,15.33
2023-05-21T23:53:13.216Z,15.04
2023-05-21T23:55:45.840Z,15.19
2023-05-21T23:58:18.441Z,15.08
